Rock Creek, Ohio
Current Conditions -  °F | °C
As of 2:37 PM on Thursday 27 Nov 2014 (Local Time) from KHZY Reporting Station
Overcast Overcast  
Wind Chill: 25°   Ceiling: 2600
Heat Index: 32°   Visibility: 10mi
Dew Point: 25°   Wind: 8mph
Humidity: 75%   Direction: 270°W
Pressure: 30.11"   Gusts: NA
Location:  41.66°N, 80.86°W
Report Text: KHZY 271937Z AUTO 27007KT 10SM BKN026 OVC032 00/M04 A3011 RMK AO2 T00001039
Loading
Personal Weather Stations






























Interactive Weather Map New forecast layout! Learn more

10-Day Weather Forecast

Advertisements
Track Severe Weather on mobile